createdAt,value
2019-03-25T00:00:46.129Z,0
2019-03-25T00:01:48.583Z,0
2019-03-25T00:02:51.080Z,0
2019-03-25T00:03:53.183Z,0
2019-03-25T00:04:55.291Z,0
2019-03-25T00:05:57.409Z,0
2019-03-25T00:06:59.515Z,0
2019-03-25T00:08:01.622Z,0
2019-03-25T00:09:05.616Z,0
2019-03-25T00:10:08.176Z,0
2019-03-25T00:11:10.572Z,0
2019-03-25T00:12:13.358Z,0
2019-03-25T00:13:15.468Z,0
2019-03-25T00:14:17.565Z,0
2019-03-25T00:15:19.707Z,0
2019-03-25T00:16:21.819Z,0
2019-03-25T00:17:23.929Z,0
2019-03-25T00:18:26.056Z,0
2019-03-25T00:19:28.555Z,0
2019-03-25T00:20:30.692Z,0
2019-03-25T00:21:33.089Z,0
2019-03-25T00:22:35.210Z,0
2019-03-25T00:23:37.310Z,0
2019-03-25T00:24:39.435Z,0
2019-03-25T00:25:41.556Z,0
2019-03-25T00:26:43.717Z,0
2019-03-25T00:27:45.848Z,0
2019-03-25T00:28:47.961Z,0
2019-03-25T00:29:50.075Z,0
2019-03-25T00:30:52.191Z,0
2019-03-25T00:31:54.333Z,0
2019-03-25T00:32:56.728Z,0
2019-03-25T00:33:58.872Z,0
2019-03-25T00:35:01.277Z,0
2019-03-25T00:36:03.669Z,0
2019-03-25T00:37:05.802Z,0
2019-03-25T00:38:07.923Z,0
2019-03-25T00:39:10.024Z,0
2019-03-25T00:40:12.141Z,0
2019-03-25T00:41:14.262Z,0
2019-03-25T00:42:16.367Z,0
2019-03-25T00:43:18.488Z,0
2019-03-25T00:44:20.989Z,0
2019-03-25T00:45:23.085Z,0
2019-03-25T00:46:25.199Z,0
2019-03-25T00:47:27.328Z,0
2019-03-25T00:48:29.712Z,0
2019-03-25T00:49:31.834Z,0
2019-03-25T00:50:33.948Z,0
2019-03-25T00:51:36.053Z,0
2019-03-25T00:52:38.185Z,0
2019-03-25T00:53:40.604Z,0
2019-03-25T00:54:49.765Z,0
2019-03-25T00:55:52.405Z,0
2019-03-25T00:56:54.566Z,0
2019-03-25T00:57:56.692Z,0
2019-03-25T00:58:58.806Z,0
2019-03-25T01:00:01.483Z,0
2019-03-25T01:01:04.004Z,0
2019-03-25T01:02:06.403Z,0
2019-03-25T01:03:08.516Z,0
2019-03-25T01:04:10.908Z,0
2019-03-25T01:05:13.428Z,0
2019-03-25T01:06:15.810Z,0
2019-03-25T01:07:18.212Z,0
2019-03-25T01:08:20.333Z,0
2019-03-25T01:09:22.436Z,0
2019-03-25T01:10:24.560Z,0
2019-03-25T01:11:27.350Z,0
2019-03-25T01:12:29.805Z,0
2019-03-25T01:13:31.989Z,0
2019-03-25T01:14:34.117Z,0
2019-03-25T01:15:36.220Z,0
2019-03-25T01:16:38.336Z,0
2019-03-25T01:17:40.734Z,0
2019-03-25T01:18:42.833Z,0
2019-03-25T01:19:44.950Z,0
2019-03-25T01:20:47.085Z,0
2019-03-25T01:21:49.185Z,0
2019-03-25T01:22:51.300Z,0
2019-03-25T01:23:53.450Z,0
2019-03-25T01:25:01.631Z,0
2019-03-25T01:26:04.815Z,0
2019-03-25T01:27:07.217Z,0
2019-03-25T01:28:09.331Z,0
2019-03-25T01:29:11.441Z,0
2019-03-25T01:30:13.572Z,0
2019-03-25T01:31:15.969Z,0
2019-03-25T01:32:18.361Z,0
2019-03-25T01:33:20.479Z,0
2019-03-25T01:34:22.587Z,0
2019-03-25T01:35:24.682Z,0
2019-03-25T01:36:26.794Z,0
2019-03-25T01:37:28.895Z,0
2019-03-25T01:38:31.021Z,0
2019-03-25T01:39:33.417Z,0
2019-03-25T01:40:35.542Z,0
2019-03-25T01:41:37.663Z,0
2019-03-25T01:42:39.759Z,0
2019-03-25T01:43:41.882Z,0
2019-03-25T01:44:43.997Z,0
2019-03-25T01:45:46.108Z,0
2019-03-25T01:46:48.810Z,0
2019-03-25T01:47:50.929Z,0
2019-03-25T01:48:53.038Z,0
2019-03-25T01:49:55.160Z,0
2019-03-25T01:50:57.266Z,0
2019-03-25T01:51:59.366Z,0
2019-03-25T01:53:01.476Z,0
2019-03-25T01:54:03.596Z,0
2019-03-25T01:55:13.181Z,0
2019-03-25T01:56:16.381Z,0
2019-03-25T01:57:18.773Z,0
2019-03-25T01:58:20.880Z,0
2019-03-25T01:59:23.062Z,0
2019-03-25T02:00:25.497Z,0
2019-03-25T02:01:27.611Z,0
2019-03-25T02:02:29.718Z,0
2019-03-25T02:03:31.849Z,0
2019-03-25T02:04:34.244Z,0
2019-03-25T02:05:36.366Z,0
2019-03-25T02:06:38.492Z,0
2019-03-25T02:07:40.584Z,0
2019-03-25T02:08:42.708Z,0
2019-03-25T02:09:44.821Z,0
2019-03-25T02:10:46.941Z,0
2019-03-25T02:11:49.035Z,0
2019-03-25T02:12:51.193Z,0
2019-03-25T02:13:53.305Z,0
2019-03-25T02:14:55.425Z,0
2019-03-25T02:15:57.517Z,0
2019-03-25T02:16:59.687Z,0
2019-03-25T02:18:02.150Z,0
2019-03-25T02:19:04.259Z,0
2019-03-25T02:20:06.362Z,0
2019-03-25T02:21:08.538Z,0
2019-03-25T02:22:10.956Z,0
2019-03-25T02:23:13.195Z,0
2019-03-25T02:24:16.137Z,0
2019-03-25T02:25:25.100Z,0
2019-03-25T02:26:28.364Z,0
2019-03-25T02:27:30.488Z,0
2019-03-25T02:28:32.874Z,0
2019-03-25T02:29:35.385Z,0
2019-03-25T02:30:37.510Z,0
2019-03-25T02:31:40.058Z,0
2019-03-25T02:32:42.890Z,0
2019-03-25T02:33:45.391Z,0
2019-03-25T02:34:47.600Z,0
2019-03-25T02:35:49.741Z,0
2019-03-25T02:36:52.864Z,0
2019-03-25T02:37:55.290Z,0
2019-03-25T02:38:57.417Z,0
2019-03-25T02:40:00.553Z,0
2019-03-25T02:41:03.031Z,0
2019-03-25T02:42:05.597Z,0
2019-03-25T02:43:08.122Z,0
2019-03-25T02:44:10.948Z,0
2019-03-25T02:45:14.024Z,0
2019-03-25T02:46:16.462Z,0
2019-03-25T02:47:19.576Z,0
2019-03-25T02:48:21.714Z,0
2019-03-25T02:49:24.460Z,0
2019-03-25T02:50:26.646Z,0
2019-03-25T02:51:28.768Z,0
2019-03-25T02:52:31.500Z,0
2019-03-25T02:53:34.321Z,0
2019-03-25T02:54:36.435Z,0
2019-03-25T02:55:41.685Z,0
2019-03-25T02:56:44.767Z,0
2019-03-25T02:57:46.897Z,0
2019-03-25T02:58:49.063Z,0
2019-03-25T02:59:51.681Z,0
2019-03-25T03:00:53.795Z,0
2019-03-25T03:01:55.938Z,0
2019-03-25T03:02:58.336Z,0
2019-03-25T03:04:00.773Z,0
2019-03-25T03:05:03.206Z,0
2019-03-25T03:06:05.638Z,0
2019-03-25T03:07:08.162Z,0
2019-03-25T03:08:11.269Z,0
2019-03-25T03:09:13.961Z,0
2019-03-25T03:10:16.660Z,0
2019-03-25T03:11:18.828Z,0
2019-03-25T03:12:21.251Z,0
2019-03-25T03:13:23.405Z,0
2019-03-25T03:14:25.551Z,0
2019-03-25T03:15:27.957Z,0
2019-03-25T03:16:30.363Z,0
2019-03-25T03:17:33.172Z,0
2019-03-25T03:18:35.332Z,0
2019-03-25T03:19:37.447Z,0
2019-03-25T03:20:40.354Z,0
2019-03-25T03:21:42.765Z,0
2019-03-25T03:22:45.473Z,0
2019-03-25T03:23:47.926Z,0
2019-03-25T03:24:50.051Z,0
2019-03-25T03:25:57.494Z,0
2019-03-25T03:27:00.790Z,0
2019-03-25T03:28:04.223Z,0
2019-03-25T03:29:07.619Z,0
2019-03-25T03:30:10.493Z,0
2019-03-25T03:31:12.968Z,0
2019-03-25T03:32:15.717Z,0
2019-03-25T03:33:18.170Z,0
2019-03-25T03:34:21.053Z,0
2019-03-25T03:35:23.813Z,0
2019-03-25T03:36:26.355Z,0
2019-03-25T03:37:28.915Z,0
2019-03-25T03:38:31.397Z,0
2019-03-25T03:39:33.510Z,0
2019-03-25T03:40:35.664Z,0
2019-03-25T03:41:38.409Z,0
2019-03-25T03:42:40.961Z,0
2019-03-25T03:43:43.476Z,0
2019-03-25T03:44:46.308Z,0
2019-03-25T03:45:48.747Z,0
2019-03-25T03:46:50.901Z,0
2019-03-25T03:47:53.338Z,0
2019-03-25T03:48:55.773Z,0
2019-03-25T03:49:58.181Z,0
2019-03-25T03:51:00.578Z,0
2019-03-25T03:52:02.727Z,0
2019-03-25T03:53:05.158Z,0
2019-03-25T03:54:07.303Z,0
2019-03-25T03:55:09.817Z,0
2019-03-25T03:56:14.120Z,0
2019-03-25T03:57:16.706Z,0
2019-03-25T03:58:19.113Z,0
2019-03-25T03:59:21.236Z,0
2019-03-25T04:00:23.366Z,0
2019-03-25T04:01:25.519Z,0
2019-03-25T04:02:27.661Z,0
2019-03-25T04:03:30.130Z,0
2019-03-25T04:04:32.527Z,0
2019-03-25T04:05:34.777Z,0
2019-03-25T04:06:37.362Z,0
2019-03-25T04:07:40.240Z,0
2019-03-25T04:08:42.946Z,0
2019-03-25T04:09:45.068Z,0
2019-03-25T04:10:47.184Z,0
2019-03-25T04:11:50.108Z,0
2019-03-25T04:12:52.272Z,0
2019-03-25T04:13:54.526Z,0
2019-03-25T04:14:56.672Z,0
2019-03-25T04:16:01.346Z,0
2019-03-25T04:17:04.792Z,0
2019-03-25T04:18:07.361Z,0
2019-03-25T04:19:09.560Z,0
2019-03-25T04:20:12.400Z,0
2019-03-25T04:21:14.841Z,0
2019-03-25T04:22:17.059Z,0
2019-03-25T04:23:19.908Z,0
2019-03-25T04:24:22.656Z,0
2019-03-25T04:25:24.819Z,0
2019-03-25T04:26:29.361Z,0
2019-03-25T04:27:31.737Z,0
2019-03-25T04:28:34.599Z,0
2019-03-25T04:29:37.029Z,0
2019-03-25T04:30:39.443Z,0
2019-03-25T04:31:42.851Z,0
2019-03-25T04:32:45.750Z,0
2019-03-25T04:33:48.280Z,0
2019-03-25T04:34:50.729Z,0
2019-03-25T04:35:53.856Z,0
2019-03-25T04:36:56.016Z,4
2019-03-25T04:37:58.130Z,4
2019-03-25T04:39:00.250Z,0
2019-03-25T04:40:02.408Z,0
2019-03-25T04:41:05.163Z,4
2019-03-25T04:42:07.266Z,4
2019-03-25T04:43:09.394Z,0
2019-03-25T04:44:11.573Z,4
2019-03-25T04:45:13.696Z,4
2019-03-25T04:46:15.795Z,8
2019-03-25T04:47:18.300Z,8
2019-03-25T04:48:20.406Z,8
2019-03-25T04:49:22.538Z,12
2019-03-25T04:50:24.637Z,12
2019-03-25T04:51:27.039Z,20
2019-03-25T04:52:29.445Z,28
2019-03-25T04:53:31.549Z,32
2019-03-25T04:54:33.678Z,36
2019-03-25T04:55:35.776Z,44
2019-03-25T04:56:39.759Z,48
2019-03-25T04:57:42.326Z,60
2019-03-25T04:58:44.466Z,64
2019-03-25T04:59:46.859Z,68
2019-03-25T05:00:48.982Z,68
2019-03-25T05:01:51.164Z,64
2019-03-25T05:02:53.272Z,72
2019-03-25T05:03:55.676Z,80
2019-03-25T05:04:57.812Z,92
2019-03-25T05:05:59.915Z,76
2019-03-25T05:07:02.037Z,80
2019-03-25T05:08:04.157Z,96
2019-03-25T05:09:06.334Z,76
2019-03-25T05:10:08.454Z,64
2019-03-25T05:11:10.643Z,76
2019-03-25T05:12:12.812Z,136
2019-03-25T05:13:14.957Z,144
2019-03-25T05:14:17.380Z,148
2019-03-25T05:15:19.503Z,148
2019-03-25T05:16:21.895Z,152
2019-03-25T05:17:24.019Z,228
2019-03-25T05:18:26.125Z,276
2019-03-25T05:19:28.526Z,320
2019-03-25T05:20:30.979Z,340
2019-03-25T05:21:33.385Z,352
2019-03-25T05:22:35.823Z,368
2019-03-25T05:23:37.951Z,432
2019-03-25T05:24:40.056Z,504
2019-03-25T05:25:42.165Z,564
2019-03-25T05:26:50.802Z,640
2019-03-25T05:27:53.494Z,712
2019-03-25T05:28:56.004Z,764
2019-03-25T05:29:58.128Z,828
2019-03-25T05:31:00.526Z,828
2019-03-25T05:32:02.635Z,840
2019-03-25T05:33:04.756Z,876
2019-03-25T05:34:06.865Z,976
2019-03-25T05:35:08.983Z,976
2019-03-25T05:36:11.398Z,980
2019-03-25T05:37:13.507Z,996
2019-03-25T05:38:15.608Z,976
2019-03-25T05:39:17.725Z,1004
2019-03-25T05:40:19.834Z,984
2019-03-25T05:41:22.380Z,876
2019-03-25T05:42:24.517Z,820
2019-03-25T05:43:27.007Z,924
2019-03-25T05:44:29.423Z,1148
2019-03-25T05:45:31.849Z,1128
2019-03-25T05:46:33.971Z,1036
2019-03-25T05:47:36.069Z,1056
2019-03-25T05:48:38.200Z,1200
2019-03-25T05:49:40.301Z,1420
2019-03-25T05:50:42.405Z,1312
2019-03-25T05:51:44.527Z,1208
2019-03-25T05:52:46.621Z,1188
2019-03-25T05:53:48.739Z,1304
2019-03-25T05:54:50.845Z,1328
2019-03-25T05:55:52.964Z,1448
2019-03-25T05:57:02.234Z,1604
2019-03-25T05:58:05.149Z,1820
2019-03-25T05:59:07.540Z,2152
2019-03-25T06:00:09.638Z,2876
2019-03-25T06:01:11.755Z,3340
2019-03-25T06:02:13.948Z,3348
2019-03-25T06:03:16.060Z,3100
2019-03-25T06:04:18.175Z,2920
2019-03-25T06:05:20.273Z,2480
2019-03-25T06:06:22.407Z,2588
2019-03-25T06:07:24.644Z,2992
2019-03-25T06:08:26.751Z,3292
2019-03-25T06:09:29.179Z,2896
2019-03-25T06:10:31.290Z,2616
2019-03-25T06:11:33.403Z,2484
2019-03-25T06:12:35.532Z,2592
2019-03-25T06:13:37.642Z,3016
2019-03-25T06:14:39.746Z,3040
2019-03-25T06:15:41.869Z,2960
2019-03-25T06:16:43.976Z,2956
2019-03-25T06:17:46.092Z,2616
2019-03-25T06:18:48.212Z,2636
2019-03-25T06:19:50.602Z,3108
2019-03-25T06:20:52.711Z,3408
2019-03-25T06:21:54.840Z,2876
2019-03-25T06:22:56.960Z,3136
2019-03-25T06:23:59.075Z,3476
2019-03-25T06:25:01.211Z,3684
2019-03-25T06:26:04.008Z,3236
2019-03-25T06:27:13.882Z,3260
2019-03-25T06:28:17.056Z,4156
2019-03-25T06:29:19.455Z,3792
2019-03-25T06:30:21.552Z,3896
2019-03-25T06:31:24.066Z,5096
2019-03-25T06:32:26.182Z,6072
2019-03-25T06:33:28.289Z,7380
2019-03-25T06:34:30.417Z,7724
2019-03-25T06:35:32.960Z,7280
2019-03-25T06:36:35.069Z,8264
2019-03-25T06:37:37.173Z,8304
2019-03-25T06:38:39.314Z,8204
2019-03-25T06:39:41.705Z,8364
2019-03-25T06:40:43.825Z,7656
2019-03-25T06:41:46.340Z,6064
2019-03-25T06:42:48.747Z,6308
2019-03-25T06:43:50.854Z,7244
2019-03-25T06:44:52.983Z,8644
2019-03-25T06:45:55.105Z,9576
2019-03-25T06:46:57.234Z,10436
2019-03-25T06:47:59.356Z,9988
2019-03-25T06:49:01.481Z,10152
2019-03-25T06:50:03.588Z,10284
2019-03-25T06:51:05.703Z,10872
2019-03-25T06:52:07.828Z,12696
2019-03-25T06:53:09.945Z,12956
2019-03-25T06:54:12.045Z,11252
2019-03-25T06:55:14.170Z,10576
2019-03-25T06:56:16.285Z,10476
2019-03-25T06:57:25.381Z,11560
2019-03-25T06:58:28.087Z,12104
2019-03-25T06:59:30.200Z,12036
2019-03-25T07:00:32.345Z,11976
2019-03-25T07:01:34.841Z,12780
2019-03-25T07:02:37.353Z,13544
2019-03-25T07:03:40.045Z,13868
2019-03-25T07:04:42.167Z,13816
2019-03-25T07:05:44.284Z,13820
2019-03-25T07:06:46.382Z,13884
2019-03-25T07:07:48.511Z,14036
2019-03-25T07:08:50.622Z,14228
2019-03-25T07:09:52.785Z,14884
2019-03-25T07:10:55.182Z,14660
2019-03-25T07:11:57.305Z,14820
2019-03-25T07:12:59.408Z,15204
2019-03-25T07:14:02.194Z,16160
2019-03-25T07:15:04.316Z,16456
2019-03-25T07:16:06.416Z,17012
2019-03-25T07:17:08.561Z,17824
2019-03-25T07:18:10.669Z,17696
2019-03-25T07:19:12.800Z,16080
2019-03-25T07:20:14.910Z,15704
2019-03-25T07:21:17.016Z,15240
2019-03-25T07:22:21.811Z,15032
2019-03-25T07:23:23.915Z,15200
2019-03-25T07:24:26.022Z,14720
2019-03-25T07:25:28.143Z,14876
2019-03-25T07:26:30.267Z,15064
2019-03-25T07:27:36.581Z,15416
2019-03-25T07:28:39.509Z,13384
2019-03-25T07:29:41.615Z,13180
2019-03-25T07:30:43.728Z,12860
2019-03-25T07:31:45.859Z,13248
2019-03-25T07:32:47.953Z,12220
2019-03-25T07:33:50.380Z,10028
2019-03-25T07:34:52.595Z,6120
2019-03-25T07:35:55.129Z,5548
2019-03-25T07:36:57.251Z,4876
2019-03-25T07:37:59.377Z,4640
2019-03-25T07:39:01.777Z,4992
2019-03-25T07:40:03.891Z,5468
2019-03-25T07:41:06.031Z,6556
2019-03-25T07:42:08.126Z,8124
2019-03-25T07:43:10.278Z,7480
2019-03-25T07:44:12.395Z,7216
2019-03-25T07:45:14.816Z,7756
2019-03-25T07:46:16.930Z,8576
2019-03-25T07:47:19.357Z,11164
2019-03-25T07:48:21.476Z,12952
2019-03-25T07:49:23.575Z,12016
2019-03-25T07:50:25.707Z,27296
2019-03-25T07:51:27.835Z,12340
2019-03-25T07:52:29.930Z,8952
2019-03-25T07:53:32.047Z,14848
2019-03-25T07:54:34.261Z,58048
2019-03-25T07:55:37.088Z,16408
2019-03-25T07:56:39.771Z,55648
2019-03-25T07:57:47.925Z,69248
2019-03-25T07:58:51.143Z,70144
2019-03-25T07:59:54.006Z,61984
2019-03-25T08:00:56.215Z,27232
2019-03-25T08:01:58.394Z,19744
2019-03-25T08:03:00.908Z,19616
2019-03-25T08:04:03.761Z,22624
2019-03-25T08:05:05.984Z,20608
2019-03-25T08:06:08.215Z,15188
2019-03-25T08:07:10.337Z,46176
2019-03-25T08:08:12.552Z,87072
2019-03-25T08:09:14.700Z,49376
2019-03-25T08:10:16.968Z,80896
2019-03-25T08:11:19.397Z,80256
2019-03-25T08:12:21.618Z,29952
2019-03-25T08:13:24.292Z,22656
2019-03-25T08:14:27.872Z,26592
2019-03-25T08:15:30.317Z,39648
2019-03-25T08:16:32.462Z,37088
2019-03-25T08:17:34.587Z,26848
2019-03-25T08:18:36.744Z,22880
2019-03-25T08:19:39.150Z,48640
2019-03-25T08:20:41.261Z,54304
2019-03-25T08:21:43.373Z,24640
2019-03-25T08:22:45.514Z,23104
2019-03-25T08:23:47.625Z,20000
2019-03-25T08:24:49.749Z,20672
2019-03-25T08:25:51.874Z,16824
2019-03-25T08:26:53.989Z,19520
2019-03-25T08:28:00.098Z,31520
2019-03-25T08:29:03.481Z,12404
2019-03-25T08:30:06.254Z,16016
2019-03-25T08:31:08.409Z,54752
2019-03-25T08:32:10.537Z,89056
2019-03-25T08:33:12.653Z,97152
2019-03-25T08:34:15.057Z,36096
2019-03-25T08:35:17.166Z,24064
2019-03-25T08:36:19.290Z,24064
2019-03-25T08:37:21.415Z,83520
2019-03-25T08:38:23.520Z,27776
2019-03-25T08:39:25.657Z,20448
2019-03-25T08:40:27.766Z,23552
2019-03-25T08:41:30.221Z,48608
2019-03-25T08:42:32.335Z,30976
2019-03-25T08:43:34.463Z,28800
2019-03-25T08:44:36.583Z,15984
2019-03-25T08:45:39.098Z,10936
2019-03-25T08:46:41.231Z,8904
2019-03-25T08:47:43.612Z,9236
2019-03-25T08:48:45.739Z,8652
2019-03-25T08:49:48.442Z,7208
2019-03-25T08:50:50.558Z,7368
2019-03-25T08:51:53.078Z,8896
2019-03-25T08:52:55.209Z,9596
2019-03-25T08:53:57.325Z,10176
2019-03-25T08:54:59.440Z,9476
2019-03-25T08:56:02.058Z,9252
2019-03-25T08:57:04.453Z,9772
2019-03-25T08:58:11.765Z,9352
2019-03-25T08:59:14.675Z,9092
2019-03-25T09:00:16.789Z,11176
2019-03-25T09:01:18.907Z,11824
2019-03-25T09:02:21.027Z,11556
2019-03-25T09:03:23.131Z,12556
2019-03-25T09:04:25.255Z,12496
2019-03-25T09:05:27.684Z,11284
2019-03-25T09:06:29.844Z,12884
2019-03-25T09:07:31.961Z,14512
2019-03-25T09:08:34.094Z,16196
2019-03-25T09:09:36.220Z,16224
2019-03-25T09:10:38.337Z,17612
2019-03-25T09:11:40.442Z,23040
2019-03-25T09:12:42.572Z,35264
2019-03-25T09:13:44.687Z,38112
2019-03-25T09:14:46.870Z,72416
2019-03-25T09:15:48.987Z,41952
2019-03-25T09:16:51.159Z,55616
2019-03-25T09:17:53.559Z,32928
2019-03-25T09:18:55.965Z,40576
2019-03-25T09:19:58.090Z,79744
2019-03-25T09:21:00.200Z,77056
2019-03-25T09:22:02.619Z,122592
2019-03-25T09:23:04.747Z,41664
2019-03-25T09:24:06.858Z,89248
2019-03-25T09:25:09.162Z,91776
2019-03-25T09:26:11.247Z,116480
2019-03-25T09:27:13.285Z,104384
2019-03-25T09:28:23.935Z,90432
2019-03-25T09:29:26.702Z,89888
2019-03-25T09:30:28.771Z,87904
2019-03-25T09:31:36.564Z,28512
2019-03-25T09:32:39.179Z,25248
2019-03-25T09:33:41.229Z,25728
2019-03-25T09:34:43.256Z,25504
2019-03-25T09:35:45.305Z,19200
2019-03-25T09:36:47.844Z,15188
2019-03-25T09:37:52.694Z,17036
2019-03-25T09:38:55.077Z,15992
2019-03-25T09:39:57.119Z,11532
2019-03-25T09:40:59.151Z,8084
2019-03-25T09:42:01.202Z,6180
2019-03-25T09:43:03.258Z,4592
2019-03-25T09:44:05.296Z,4980
2019-03-25T09:45:07.338Z,7340
2019-03-25T09:46:10.020Z,10216
2019-03-25T09:47:12.065Z,13392
2019-03-25T09:48:14.381Z,16472
2019-03-25T09:49:16.731Z,18976
2019-03-25T09:50:18.762Z,20832
2019-03-25T09:51:20.831Z,21568
2019-03-25T09:52:22.866Z,23296
2019-03-25T09:53:24.912Z,23264
2019-03-25T09:54:26.927Z,26016
2019-03-25T09:55:28.980Z,37216
2019-03-25T09:56:31.030Z,37440
2019-03-25T09:57:33.634Z,45664
2019-03-25T09:58:36.719Z,52320
2019-03-25T09:59:39.123Z,61984
2019-03-25T10:00:41.551Z,59488
2019-03-25T10:01:43.610Z,67136
2019-03-25T10:02:45.668Z,65728
2019-03-25T10:03:47.696Z,57856
2019-03-25T10:04:49.731Z,32864
2019-03-25T10:05:51.850Z,25952
2019-03-25T10:06:53.898Z,36608
2019-03-25T10:07:55.939Z,22912
2019-03-25T10:08:58.358Z,21344
2019-03-25T10:10:00.432Z,21408
2019-03-25T10:11:02.477Z,23232
2019-03-25T10:12:04.826Z,25760
2019-03-25T10:13:07.144Z,27872
2019-03-25T10:14:09.168Z,28832
2019-03-25T10:15:11.223Z,24512
2019-03-25T10:16:13.257Z,16308
2019-03-25T10:17:15.293Z,10844
2019-03-25T10:18:17.401Z,7752
2019-03-25T10:19:19.427Z,8120
2019-03-25T10:20:21.474Z,9060
2019-03-25T10:21:23.510Z,9508
2019-03-25T10:22:25.564Z,10448
2019-03-25T10:23:27.621Z,10840
2019-03-25T10:24:29.961Z,10252
2019-03-25T10:25:32.326Z,9708
2019-03-25T10:26:34.355Z,9796
2019-03-25T10:27:36.427Z,10080
2019-03-25T10:28:47.778Z,10116
2019-03-25T10:29:51.163Z,9976
2019-03-25T10:30:53.203Z,9520
2019-03-25T10:31:55.543Z,9416
2019-03-25T10:32:57.571Z,10552
2019-03-25T10:33:59.609Z,11988
2019-03-25T10:35:01.681Z,12908
2019-03-25T10:36:04.034Z,13396
2019-03-25T10:37:06.075Z,13676
2019-03-25T10:38:19.048Z,13864
2019-03-25T10:39:22.350Z,13844
2019-03-25T10:40:24.384Z,13636
2019-03-25T10:41:26.423Z,13392
2019-03-25T10:42:28.455Z,12908
2019-03-25T10:43:30.782Z,12408
2019-03-25T10:44:32.818Z,12048
2019-03-25T10:45:34.912Z,12652
2019-03-25T10:46:36.948Z,14024
2019-03-25T10:47:39.025Z,15380
2019-03-25T10:48:41.057Z,16528
2019-03-25T10:49:43.095Z,17540
2019-03-25T10:50:45.415Z,18656
2019-03-25T10:51:47.440Z,19488
2019-03-25T10:52:49.483Z,20448
2019-03-25T10:53:51.588Z,21504
2019-03-25T10:54:53.619Z,22464
2019-03-25T10:55:55.752Z,23904
2019-03-25T10:56:57.811Z,25984
2019-03-25T10:57:59.834Z,25568
2019-03-25T10:59:02.259Z,26048
2019-03-25T11:00:04.297Z,28128
2019-03-25T11:01:06.314Z,26176
2019-03-25T11:02:10.587Z,26528
2019-03-25T11:03:12.617Z,26016
2019-03-25T11:04:14.668Z,25664
2019-03-25T11:05:16.701Z,26464
2019-03-25T11:06:18.746Z,26048
2019-03-25T11:07:20.810Z,27424
2019-03-25T11:08:23.598Z,28000
2019-03-25T11:09:25.645Z,27232
2019-03-25T11:10:28.058Z,27744
2019-03-25T11:11:30.168Z,32416
2019-03-25T11:12:32.229Z,43552
2019-03-25T11:13:34.256Z,28032
2019-03-25T11:14:36.861Z,24704
2019-03-25T11:15:38.888Z,23360
2019-03-25T11:16:40.935Z,25696
2019-03-25T11:17:42.992Z,33280
2019-03-25T11:18:45.310Z,35008
2019-03-25T11:19:47.394Z,42624
2019-03-25T11:20:49.436Z,25088
2019-03-25T11:21:51.476Z,24192
2019-03-25T11:22:53.521Z,22496
2019-03-25T11:23:55.863Z,22368
2019-03-25T11:24:57.900Z,23232
2019-03-25T11:25:59.950Z,49344
2019-03-25T11:27:01.984Z,114144
2019-03-25T11:28:04.037Z,120576
2019-03-25T11:29:08.475Z,74176
2019-03-25T11:30:10.864Z,74432
2019-03-25T11:31:12.907Z,22560
2019-03-25T11:32:14.946Z,26112
2019-03-25T11:33:17.029Z,31168
2019-03-25T11:34:19.060Z,26912
2019-03-25T11:35:21.400Z,25344
2019-03-25T11:36:23.735Z,100448
2019-03-25T11:37:25.781Z,94752
2019-03-25T11:38:27.821Z,78400
2019-03-25T11:39:30.186Z,35744
2019-03-25T11:40:32.673Z,30528
2019-03-25T11:41:34.709Z,14328
2019-03-25T11:42:36.760Z,8436
2019-03-25T11:43:38.836Z,4720
2019-03-25T11:44:41.156Z,3088
2019-03-25T11:45:43.486Z,3396
2019-03-25T11:46:45.521Z,5000
2019-03-25T11:47:47.547Z,6696
2019-03-25T11:48:49.584Z,10312
2019-03-25T11:49:51.620Z,49216
2019-03-25T11:50:53.948Z,100320
2019-03-25T11:51:55.998Z,101056
2019-03-25T11:52:58.069Z,97440
2019-03-25T11:54:00.111Z,91840
2019-03-25T11:55:02.447Z,96288
2019-03-25T11:56:04.493Z,100480
2019-03-25T11:57:06.542Z,102592
2019-03-25T11:58:08.589Z,80160
2019-03-25T11:59:18.241Z,94688
2019-03-25T12:00:23.290Z,95136
2019-03-25T12:01:25.709Z,92960
2019-03-25T12:02:27.763Z,91680
2019-03-25T12:03:29.792Z,53504
2019-03-25T12:04:32.135Z,87968
2019-03-25T12:05:34.845Z,95168
2019-03-25T12:06:36.882Z,95392
2019-03-25T12:07:38.933Z,92928
2019-03-25T12:08:40.980Z,91168
2019-03-25T12:09:43.018Z,91712
2019-03-25T12:10:45.067Z,94912
2019-03-25T12:11:47.139Z,93600
2019-03-25T12:12:49.175Z,87488
2019-03-25T12:13:51.217Z,46880
2019-03-25T12:14:53.264Z,56768
2019-03-25T12:15:55.299Z,91936
2019-03-25T12:16:57.353Z,96608
2019-03-25T12:17:59.391Z,39168
2019-03-25T12:19:01.446Z,101056
2019-03-25T12:20:03.500Z,101472
2019-03-25T12:21:05.546Z,97152
2019-03-25T12:22:07.588Z,22144
2019-03-25T12:23:09.625Z,13160
2019-03-25T12:24:11.671Z,10164
2019-03-25T12:25:13.730Z,10968
2019-03-25T12:26:15.778Z,10104
2019-03-25T12:27:17.880Z,7196
2019-03-25T12:28:20.930Z,5504
2019-03-25T12:29:29.852Z,5308
2019-03-25T12:30:38.391Z,6160
2019-03-25T12:31:40.446Z,7332
2019-03-25T12:32:42.476Z,8564
2019-03-25T12:33:44.522Z,10556
2019-03-25T12:34:46.591Z,83360
2019-03-25T12:35:48.897Z,86496
2019-03-25T12:36:50.936Z,89856
2019-03-25T12:37:53.651Z,62944
2019-03-25T12:38:55.717Z,66848
2019-03-25T12:39:57.769Z,88640
2019-03-25T12:40:59.894Z,52032
2019-03-25T12:42:01.926Z,17920
2019-03-25T12:43:03.971Z,15836
2019-03-25T12:44:06.299Z,15520
2019-03-25T12:45:08.348Z,15716
2019-03-25T12:46:10.383Z,15972
2019-03-25T12:47:12.431Z,15992
2019-03-25T12:48:14.494Z,14284
2019-03-25T12:49:16.811Z,13568
2019-03-25T12:50:18.866Z,22048
2019-03-25T12:51:20.906Z,91808
2019-03-25T12:52:22.939Z,29440
2019-03-25T12:53:25.001Z,27808
2019-03-25T12:54:27.059Z,10628
2019-03-25T12:55:29.119Z,7332
2019-03-25T12:56:31.452Z,6176
2019-03-25T12:57:33.491Z,5844
2019-03-25T12:58:35.525Z,6064
2019-03-25T12:59:41.369Z,6612
2019-03-25T13:00:43.816Z,8336
2019-03-25T13:01:52.698Z,12044
2019-03-25T13:02:55.423Z,19616
2019-03-25T13:03:57.762Z,15700
2019-03-25T13:04:59.825Z,67200
2019-03-25T13:06:02.073Z,63936
2019-03-25T13:07:04.743Z,72768
2019-03-25T13:08:06.820Z,21856
2019-03-25T13:09:08.959Z,19424
2019-03-25T13:10:11.459Z,32544
2019-03-25T13:11:14.823Z,12780
2019-03-25T13:12:16.900Z,10968
2019-03-25T13:13:18.948Z,10356
2019-03-25T13:14:21.020Z,10772
2019-03-25T13:15:23.080Z,10968
2019-03-25T13:16:25.161Z,11008
2019-03-25T13:17:27.226Z,11356
2019-03-25T13:18:29.569Z,10936
2019-03-25T13:19:32.026Z,11032
2019-03-25T13:20:34.102Z,46624
2019-03-25T13:21:36.167Z,42368
2019-03-25T13:22:38.257Z,74816
2019-03-25T13:23:40.322Z,50272
2019-03-25T13:24:42.365Z,77184
2019-03-25T13:25:44.427Z,26048
2019-03-25T13:26:46.765Z,42560
2019-03-25T13:27:48.833Z,20896
2019-03-25T13:29:01.452Z,22496
2019-03-25T13:30:04.984Z,25760
2019-03-25T13:31:07.048Z,27840
2019-03-25T13:32:09.111Z,28896
2019-03-25T13:33:11.165Z,26720
2019-03-25T13:34:13.233Z,22848
2019-03-25T13:35:15.282Z,50112
2019-03-25T13:36:18.093Z,53632
2019-03-25T13:37:20.150Z,25568
2019-03-25T13:38:22.195Z,21984
2019-03-25T13:39:24.264Z,31872
2019-03-25T13:40:26.328Z,69024
2019-03-25T13:41:28.646Z,63968
2019-03-25T13:42:30.683Z,62656
2019-03-25T13:43:32.726Z,67712
2019-03-25T13:44:34.777Z,62880
2019-03-25T13:45:36.819Z,46080
2019-03-25T13:46:38.860Z,46016
2019-03-25T13:47:40.906Z,20000
2019-03-25T13:48:42.979Z,14356
2019-03-25T13:49:45.074Z,13180
2019-03-25T13:50:47.135Z,13400
2019-03-25T13:51:49.201Z,15200
2019-03-25T13:52:51.284Z,16772
2019-03-25T13:53:53.611Z,17988
2019-03-25T13:54:55.667Z,23424
2019-03-25T13:55:57.718Z,46592
2019-03-25T13:57:00.130Z,40032
2019-03-25T13:58:02.229Z,41440
2019-03-25T13:59:04.293Z,14024
2019-03-25T14:00:06.387Z,11588
2019-03-25T14:01:08.456Z,9856
2019-03-25T14:02:10.502Z,8584
2019-03-25T14:03:12.581Z,7512
2019-03-25T14:04:14.634Z,8060
2019-03-25T14:05:16.690Z,9316
2019-03-25T14:06:18.773Z,10984
2019-03-25T14:07:20.835Z,11360
2019-03-25T14:08:22.885Z,10500
2019-03-25T14:09:24.943Z,9752
2019-03-25T14:10:27.046Z,10748